Time;durP1;ratioP1;P1;durP2;ratioP2;P2;SDS_P1;SDS_P2;PMS_P1;PMS_P2;Temp;Humidity;BMP_temperature;BMP_pressure;BME280_temperature;BME280_humidity;BME280_pressure;Samples;Min_cycle;Max_cycle;Signal;HPM_P1;HPM_P2
2022/12/13 00:00:13;;;;;;;36.33;17.52;;;-0.50;99.90;;;;;;5045450;28;20027;-68
2022/12/13 00:02:40;;;;;;;37.58;17.25;;;-0.50;99.90;;;;;;5045797;28;20033;-67
2022/12/13 00:05:06;;;;;;;38.88;17.23;;;-0.50;99.90;;;;;;5054925;28;20460;-68
2022/12/13 00:07:33;;;;;;;43.58;18.10;;;-0.60;99.90;;;;;;5053817;28;20033;-68
2022/12/13 00:09:58;;;;;;;39.10;17.45;;;-0.50;99.90;;;;;;5042855;28;20021;-67
2022/12/13 00:12:24;;;;;;;38.38;16.98;;;-0.50;99.90;;;;;;5052079;28;20039;-67
2022/12/13 00:14:50;;;;;;;38.10;16.63;;;-0.60;99.90;;;;;;5050062;28;20025;-68
2022/12/13 00:17:15;;;;;;;38.38;17.40;;;-0.60;99.90;;;;;;5055459;28;20029;-67
2022/12/13 00:19:41;;;;;;;38.03;15.63;;;-0.60;99.90;;;;;;5070166;28;20017;-67
2022/12/13 00:22:06;;;;;;;40.83;16.23;;;-0.60;99.90;;;;;;5053696;28;20389;-67
2022/12/13 00:24:32;;;;;;;40.65;17.52;;;-0.60;99.90;;;;;;5051135;28;20465;-67
2022/12/13 00:26:57;;;;;;;37.33;16.00;;;-0.70;99.90;;;;;;5051907;28;20515;-67
2022/12/13 00:29:23;;;;;;;39.78;17.00;;;-0.70;99.90;;;;;;5053061;28;20392;-67
2022/12/13 00:31:48;;;;;;;39.67;17.63;;;-0.70;99.90;;;;;;5051417;28;20101;-67
2022/12/13 00:34:14;;;;;;;40.33;16.85;;;-0.70;99.90;;;;;;5070495;28;20063;-67
2022/12/13 00:36:40;;;;;;;40.40;16.80;;;-0.70;99.90;;;;;;5070357;28;20032;-67
2022/12/13 00:39:05;;;;;;;38.85;18.15;;;-0.70;99.90;;;;;;5047583;28;20045;-67
2022/12/13 00:41:33;;;;;;;35.22;15.38;;;-0.70;99.90;;;;;;5049901;28;20033;-68
2022/12/13 00:43:59;;;;;;;39.45;17.08;;;-0.70;99.90;;;;;;5048792;28;20033;-67
2022/12/13 00:46:26;;;;;;;41.20;16.27;;;-0.70;99.90;;;;;;5056416;28;20021;-67
2022/12/13 00:48:55;;;;;;;37.30;16.58;;;-0.70;99.90;;;;;;5051228;28;20111;-67
2022/12/13 00:51:21;;;;;;;37.60;17.13;;;-0.70;99.90;;;;;;5055550;28;20090;-67
2022/12/13 00:53:47;;;;;;;34.70;17.48;;;-0.70;99.90;;;;;;5054845;28;20108;-67
2022/12/13 00:56:20;;;;;;;42.42;17.42;;;-0.70;99.90;;;;;;5056403;28;20104;-67
2022/12/13 00:58:46;;;;;;;36.42;17.20;;;-0.80;99.90;;;;;;5042583;28;20048;-67
2022/12/13 01:01:14;;;;;;;39.85;17.77;;;-0.70;99.90;;;;;;5048845;28;20053;-67
2022/12/13 01:03:41;;;;;;;39.10;18.35;;;-0.80;99.90;;;;;;5054438;28;20039;-67
2022/12/13 01:06:35;;;;;;;37.75;16.80;;;-0.80;99.90;;;;;;5054617;28;20464;-67
2022/12/13 01:09:02;;;;;;;39.65;16.77;;;-0.80;99.90;;;;;;5066219;28;20029;-67
2022/12/13 01:11:28;;;;;;;36.55;16.75;;;-0.80;99.90;;;;;;5056820;28;20463;-67
2022/12/13 01:13:54;;;;;;;34.78;16.73;;;-0.80;99.90;;;;;;5050884;28;20029;-68
2022/12/13 01:16:20;;;;;;;42.20;18.48;;;-0.80;99.90;;;;;;5059954;28;20029;-67
2022/12/13 01:18:46;;;;;;;43.00;17.70;;;-0.80;99.90;;;;;;5061602;28;20055;-67
2022/12/13 01:21:16;;;;;;;39.58;17.98;;;-0.80;99.90;;;;;;5062547;28;20029;-67
2022/12/13 01:23:43;;;;;;;39.65;18.08;;;-0.80;99.90;;;;;;5049768;28;20029;-67
2022/12/13 01:26:11;;;;;;;41.90;16.85;;;-0.80;99.90;;;;;;5039001;28;20041;-67
2022/12/13 01:28:37;;;;;;;35.63;17.38;;;-0.80;99.90;;;;;;5057139;28;20084;-68
2022/12/13 01:31:06;;;;;;;37.42;17.23;;;-0.80;99.90;;;;;;5052774;28;20391;-67
2022/12/13 01:33:32;;;;;;;42.03;17.52;;;-0.80;99.90;;;;;;5053583;28;20035;-67
2022/12/13 01:36:03;;;;;;;41.67;17.45;;;-0.80;99.90;;;;;;5047918;28;20472;-67
2022/12/13 01:38:29;;;;;;;37.37;17.50;;;-0.80;99.90;;;;;;5055543;28;20203;-67
2022/12/13 01:40:58;;;;;;;38.33;17.02;;;-0.80;99.90;;;;;;5055158;28;20463;-67
2022/12/13 01:43:36;;;;;;;34.90;16.27;;;-0.90;99.90;;;;;;5050529;28;20033;-67
2022/12/13 01:46:03;;;;;;;39.40;16.67;;;-0.90;99.90;;;;;;5040473;28;20057;-67
2022/12/13 01:48:34;;;;;;;36.22;16.25;;;-0.80;99.90;;;;;;5054178;28;20036;-67
2022/12/13 01:51:02;;;;;;;39.97;17.70;;;-0.90;99.90;;;;;;5048938;28;20434;-67
2022/12/13 01:53:33;;;;;;;38.60;16.77;;;-0.90;99.90;;;;;;5053686;28;20530;-67
2022/12/13 01:56:11;;;;;;;37.42;17.17;;;-0.90;99.90;;;;;;5035767;28;20116;-66
2022/12/13 01:58:38;;;;;;;38.10;15.85;;;-0.90;99.90;;;;;;5054083;28;20132;-67
2022/12/13 02:01:03;;;;;;;35.42;16.00;;;-0.90;99.90;;;;;;5053785;28;20040;-66
2022/12/13 02:03:30;;;;;;;35.35;16.00;;;-0.90;99.90;;;;;;5057859;28;20029;-66
2022/12/13 02:06:00;;;;;;;55.50;18.25;;;-0.90;99.90;;;;;;5052834;28;20033;-66
2022/12/13 02:08:28;;;;;;;38.10;17.10;;;-0.90;99.90;;;;;;5054953;28;20438;-67
2022/12/13 02:10:54;;;;;;;38.03;16.83;;;-0.90;99.90;;;;;;5054224;28;20469;-66
2022/12/13 02:13:19;;;;;;;40.40;17.55;;;-0.90;99.90;;;;;;5067975;28;20140;-67
2022/12/13 02:16:07;;;;;;;40.75;17.60;;;-1.00;99.90;;;;;;5047321;28;20106;-67
2022/12/13 02:18:54;;;;;;;37.35;16.42;;;-1.00;99.90;;;;;;5064782;28;20040;-66
2022/12/13 02:21:35;;;;;;;42.55;17.15;;;-1.00;99.90;;;;;;5056399;28;20032;-67
2022/12/13 02:24:28;;;;;;;41.22;18.50;;;-1.00;99.90;;;;;;5045116;28;20040;-68
2022/12/13 02:27:12;;;;;;;38.55;17.52;;;-1.00;99.90;;;;;;5049494;28;20511;-67
2022/12/13 02:30:10;;;;;;;40.13;16.92;;;-1.00;99.90;;;;;;5066167;28;20060;-67
2022/12/13 02:32:39;;;;;;;42.63;18.48;;;-1.10;99.90;;;;;;5036341;28;20477;-66
2022/12/13 02:35:13;;;;;;;35.97;17.15;;;-1.10;99.90;;;;;;5034337;28;20111;-66
2022/12/13 02:38:10;;;;;;;38.83;18.30;;;-1.10;99.90;;;;;;5049541;28;20041;-67
2022/12/13 02:41:16;;;;;;;40.55;18.13;;;-1.10;99.90;;;;;;5050822;28;20045;-67
2022/12/13 02:44:10;;;;;;;40.72;18.08;;;-1.20;99.90;;;;;;5037828;28;20044;-67
2022/12/13 02:46:41;;;;;;;37.70;18.17;;;-1.20;99.90;;;;;;5037226;28;20041;-67
2022/12/13 02:49:09;;;;;;;39.00;17.52;;;-1.20;99.90;;;;;;5043121;28;20099;-66
2022/12/13 02:51:37;;;;;;;40.47;17.80;;;-1.20;99.90;;;;;;5053124;28;20496;-67
2022/12/13 02:54:03;;;;;;;41.10;17.63;;;-1.20;99.90;;;;;;5037470;28;20037;-67
2022/12/13 02:56:30;;;;;;;36.28;18.05;;;-1.20;99.90;;;;;;5032108;28;20025;-67
2022/12/13 02:59:00;;;;;;;41.22;20.15;;;-1.20;99.90;;;;;;5051746;28;20045;-67
2022/12/13 03:01:50;;;;;;;40.17;18.10;;;-1.20;99.90;;;;;;5052051;28;20067;-66
2022/12/13 03:08:01;;;;;;;43.60;19.55;;;-1.20;99.90;;;;;;5042821;28;20076;-66
2022/12/13 03:10:42;;;;;;;41.25;17.63;;;-1.30;99.90;;;;;;5052530;28;20037;-66
2022/12/13 03:13:36;;;;;;;40.55;18.63;;;-1.30;99.90;;;;;;5053722;28;20094;-66
2022/12/13 03:16:11;;;;;;;40.83;18.67;;;-1.30;99.90;;;;;;5039919;28;20046;-66
2022/12/13 03:18:37;;;;;;;42.70;18.58;;;-1.40;99.90;;;;;;5053755;28;20461;-66
2022/12/13 03:21:05;;;;;;;41.67;19.38;;;-1.40;99.90;;;;;;5051092;28;20116;-66
2022/12/13 03:23:30;;;;;;;41.78;19.63;;;-1.40;99.90;;;;;;5053794;28;20064;-66
2022/12/13 03:26:05;;;;;;;36.75;16.30;;;-1.40;99.90;;;;;;5048423;28;20500;-67
2022/12/13 03:28:31;;;;;;;38.72;17.13;;;-1.40;99.90;;;;;;5037404;28;20029;-66
2022/12/13 03:30:56;;;;;;;42.28;17.35;;;-1.40;99.90;;;;;;5045787;28;20033;-67
2022/12/13 03:33:22;;;;;;;38.05;17.35;;;-1.50;99.90;;;;;;5022109;28;20116;-66
2022/12/13 03:35:48;;;;;;;41.63;18.92;;;-1.50;99.90;;;;;;5045772;28;20070;-66
2022/12/13 03:38:16;;;;;;;38.75;17.25;;;-1.50;99.90;;;;;;5044843;28;20053;-68
2022/12/13 03:40:41;;;;;;;44.38;18.55;;;-1.50;99.90;;;;;;5032962;28;20687;-67
2022/12/13 03:43:07;;;;;;;41.92;18.52;;;-1.40;99.90;;;;;;5033815;28;20039;-67
2022/12/13 03:45:32;;;;;;;43.60;19.35;;;-1.40;99.90;;;;;;5038198;28;20098;-66
2022/12/13 03:47:58;;;;;;;39.75;18.13;;;-1.40;99.90;;;;;;5048009;28;20047;-66
2022/12/13 03:50:24;;;;;;;44.08;20.52;;;-1.40;99.90;;;;;;5025616;28;20440;-66
2022/12/13 03:52:50;;;;;;;43.65;18.35;;;-1.40;99.90;;;;;;5037223;28;20070;-68
2022/12/13 03:55:17;;;;;;;41.97;19.90;;;-1.40;99.90;;;;;;5048675;28;20029;-67
2022/12/13 03:57:43;;;;;;;44.55;19.25;;;-1.40;99.90;;;;;;5049424;28;20037;-67
2022/12/13 04:00:09;;;;;;;48.83;20.48;;;-1.40;99.90;;;;;;5051319;28;20029;-67
2022/12/13 04:02:34;;;;;;;47.50;19.05;;;-1.40;99.90;;;;;;5051390;28;20108;-67
2022/12/13 04:05:00;;;;;;;47.58;21.70;;;-1.40;99.90;;;;;;5052460;28;20112;-67
2022/12/13 04:07:25;;;;;;;42.83;19.10;;;-1.40;99.90;;;;;;5050380;28;20057;-67
2022/12/13 04:09:51;;;;;;;41.30;18.52;;;-1.40;99.90;;;;;;5052718;28;20021;-67
2022/12/13 04:15:01;;;;;;;43.05;18.25;;;-1.40;99.90;;;;;;5038520;28;20076;-68
2022/12/13 04:17:26;;;;;;;44.60;19.95;;;-1.40;99.90;;;;;;5048477;28;20061;-67
2022/12/13 04:19:52;;;;;;;46.45;20.52;;;-1.40;99.90;;;;;;5033718;28;20094;-67
2022/12/13 04:22:17;;;;;;;45.13;18.95;;;-1.40;99.90;;;;;;5043190;28;20495;-68
2022/12/13 04:24:43;;;;;;;38.65;18.58;;;-1.50;99.90;;;;;;5034489;28;20366;-67
2022/12/13 04:27:08;;;;;;;43.65;19.45;;;-1.50;99.90;;;;;;5039999;28;20470;-67
2022/12/13 04:29:34;;;;;;;49.78;19.23;;;-1.50;99.90;;;;;;5038656;28;20029;-68
2022/12/13 04:31:59;;;;;;;63.60;20.27;;;-1.50;99.90;;;;;;5037969;28;20029;-67
2022/12/13 04:34:25;;;;;;;41.72;19.13;;;-1.50;99.90;;;;;;5052545;28;20028;-67
2022/12/13 04:36:50;;;;;;;43.05;19.83;;;-1.50;99.90;;;;;;5049836;28;20024;-68
2022/12/13 04:39:16;;;;;;;43.20;20.20;;;-1.50;99.90;;;;;;5052038;28;20045;-67
2022/12/13 04:41:41;;;;;;;44.15;19.58;;;-1.50;99.90;;;;;;5043393;28;20021;-67
2022/12/13 04:44:09;;;;;;;45.00;18.85;;;-1.50;99.90;;;;;;5040905;28;20763;-67
2022/12/13 04:46:34;;;;;;;38.65;18.58;;;-1.50;99.90;;;;;;5041957;28;20112;-67
2022/12/13 04:49:00;;;;;;;40.80;18.40;;;-1.50;99.90;;;;;;5046900;28;20120;-67
2022/12/13 04:51:26;;;;;;;48.78;20.38;;;-1.50;99.90;;;;;;5040749;28;20488;-67
2022/12/13 04:53:51;;;;;;;125.18;24.75;;;-1.50;99.90;;;;;;5033182;28;20132;-68
2022/12/13 04:56:17;;;;;;;42.33;19.13;;;-1.50;99.90;;;;;;5032288;28;20033;-67
2022/12/13 04:58:43;;;;;;;40.38;18.55;;;-1.60;99.90;;;;;;5051121;28;20051;-67
2022/12/13 05:01:10;;;;;;;41.53;18.08;;;-1.60;99.90;;;;;;5050689;28;20033;-67
2022/12/13 05:03:37;;;;;;;40.78;17.77;;;-1.60;99.90;;;;;;5032971;28;20040;-67
2022/12/13 05:06:10;;;;;;;42.50;18.67;;;-1.60;99.90;;;;;;5039368;28;20025;-67
2022/12/13 05:08:36;;;;;;;38.88;18.30;;;-1.60;99.90;;;;;;5050630;28;20033;-67
2022/12/13 05:11:03;;;;;;;48.17;21.35;;;-1.60;99.90;;;;;;5049522;28;20025;-67
2022/12/13 05:13:28;;;;;;;42.42;19.50;;;-1.60;99.90;;;;;;5048258;28;20037;-67
2022/12/13 05:15:58;;;;;;;45.35;20.88;;;-1.60;99.90;;;;;;5033304;28;20116;-68
2022/12/13 05:18:24;;;;;;;45.40;19.08;;;-1.70;99.90;;;;;;5044998;28;20063;-67
2022/12/13 05:20:50;;;;;;;46.35;18.88;;;-1.70;99.90;;;;;;5047458;28;20193;-67
2022/12/13 05:23:17;;;;;;;50.85;21.20;;;-1.70;99.90;;;;;;5051811;28;20392;-67
2022/12/13 05:25:42;;;;;;;43.63;18.08;;;-1.70;99.90;;;;;;5050381;28;20049;-67
2022/12/13 05:28:08;;;;;;;41.38;18.85;;;-1.60;99.90;;;;;;5051309;28;20148;-67
2022/12/13 05:30:40;;;;;;;42.15;19.60;;;-1.60;99.90;;;;;;5050207;28;20036;-68
2022/12/13 05:33:06;;;;;;;44.25;18.75;;;-1.60;99.90;;;;;;5051292;28;20033;-67
2022/12/13 05:35:31;;;;;;;40.33;18.33;;;-1.60;99.90;;;;;;5054405;28;20036;-67
2022/12/13 05:37:57;;;;;;;43.20;19.27;;;-1.60;99.90;;;;;;5054711;28;20037;-67
2022/12/13 05:40:24;;;;;;;357.83;51.83;;;-1.60;99.90;;;;;;5053583;28;20033;-67
2022/12/13 05:42:50;;;;;;;40.25;19.30;;;-1.60;99.90;;;;;;5052901;28;20036;-67
2022/12/13 05:45:19;;;;;;;53.22;26.70;;;-1.60;99.90;;;;;;5038924;28;20032;-67
2022/12/13 05:47:45;;;;;;;40.70;19.23;;;-1.60;99.90;;;;;;5041352;28;20029;-67
2022/12/13 05:50:11;;;;;;;40.60;18.70;;;-1.60;99.90;;;;;;5040034;28;20041;-67
2022/12/13 05:52:37;;;;;;;41.85;19.08;;;-1.60;99.90;;;;;;5038758;28;20033;-68
2022/12/13 05:55:03;;;;;;;37.95;18.83;;;-1.70;99.90;;;;;;5054200;28;20040;-67
2022/12/13 05:57:29;;;;;;;43.88;19.83;;;-1.70;99.90;;;;;;5049587;28;20029;-68
2022/12/13 05:59:54;;;;;;;46.20;19.25;;;-1.70;99.90;;;;;;5043472;28;20051;-68
2022/12/13 06:02:20;;;;;;;42.03;19.00;;;-1.70;99.90;;;;;;5053820;28;20492;-67
2022/12/13 06:04:46;;;;;;;41.75;19.30;;;-1.70;99.90;;;;;;5053021;28;20556;-68
2022/12/13 06:07:12;;;;;;;43.58;18.85;;;-1.70;99.90;;;;;;5053477;28;20029;-68
2022/12/13 06:09:38;;;;;;;48.15;19.67;;;-1.60;99.90;;;;;;5055428;28;20062;-68
2022/12/13 06:12:03;;;;;;;47.05;20.85;;;-1.60;99.90;;;;;;5052366;28;20069;-68
2022/12/13 06:14:29;;;;;;;47.20;20.58;;;-1.60;99.90;;;;;;5035106;28;20481;-67
2022/12/13 06:16:54;;;;;;;44.13;17.77;;;-1.50;99.90;;;;;;5035007;28;20083;-67
2022/12/13 06:19:21;;;;;;;49.10;20.60;;;-1.50;99.90;;;;;;5052360;28;20460;-67
2022/12/13 06:21:47;;;;;;;76.05;22.08;;;-1.50;99.90;;;;;;5052348;28;20024;-67
2022/12/13 06:24:15;;;;;;;41.10;18.67;;;-1.50;99.90;;;;;;5053249;28;20504;-67
2022/12/13 06:26:41;;;;;;;44.85;19.23;;;-1.50;99.90;;;;;;5041194;28;20493;-67
2022/12/13 06:29:06;;;;;;;49.70;21.50;;;-1.40;99.90;;;;;;5034651;28;20108;-68
2022/12/13 06:31:32;;;;;;;49.60;21.70;;;-1.40;99.90;;;;;;5042776;28;20052;-67
2022/12/13 06:34:01;;;;;;;44.50;20.38;;;-1.40;99.90;;;;;;5054564;28;20067;-67
2022/12/13 06:36:26;;;;;;;45.78;19.90;;;-1.40;99.90;;;;;;5044968;28;20120;-67
2022/12/13 06:38:52;;;;;;;42.47;20.63;;;-1.40;99.90;;;;;;5035115;28;20116;-67
2022/12/13 06:41:18;;;;;;;40.67;17.92;;;-1.40;99.90;;;;;;5039256;28;20033;-67
2022/12/13 06:43:45;;;;;;;44.10;21.63;;;-1.40;99.90;;;;;;5054562;28;20366;-67
2022/12/13 06:46:11;;;;;;;50.92;21.75;;;-1.40;99.90;;;;;;5047102;28;20037;-67
2022/12/13 06:48:36;;;;;;;47.65;20.77;;;-1.40;99.90;;;;;;5045413;28;20090;-67
2022/12/13 06:51:05;;;;;;;49.38;21.63;;;-1.40;99.90;;;;;;5053338;28;20016;-68
2022/12/13 06:53:33;;;;;;;51.75;21.10;;;-1.40;99.90;;;;;;5053548;28;20032;-67
2022/12/13 06:56:04;;;;;;;43.42;19.25;;;-1.40;99.90;;;;;;5052883;28;20029;-67
2022/12/13 06:58:29;;;;;;;49.90;21.40;;;-1.40;99.90;;;;;;5053852;28;20112;-67
2022/12/13 07:01:20;;;;;;;45.75;20.63;;;-1.40;99.90;;;;;;5042100;28;20156;-67
2022/12/13 07:03:46;;;;;;;49.35;23.38;;;-1.40;99.90;;;;;;5054594;28;20043;-67
2022/12/13 07:06:14;;;;;;;48.88;21.50;;;-1.40;99.90;;;;;;5051946;28;20025;-67
2022/12/13 07:08:41;;;;;;;52.83;24.35;;;-1.40;99.90;;;;;;5053548;28;20124;-67
2022/12/13 07:11:12;;;;;;;47.60;23.15;;;-1.40;99.90;;;;;;5042464;28;20282;-68
2022/12/13 07:13:37;;;;;;;50.35;20.50;;;-1.40;99.90;;;;;;5054071;28;20037;-67
2022/12/13 07:16:03;;;;;;;42.10;20.70;;;-1.50;99.90;;;;;;5064362;28;20396;-67
2022/12/13 07:18:29;;;;;;;41.22;20.10;;;-1.50;99.90;;;;;;5052755;28;20044;-68
2022/12/13 07:20:54;;;;;;;47.75;20.20;;;-1.50;99.90;;;;;;5052104;28;20024;-67
2022/12/13 07:23:20;;;;;;;44.08;21.25;;;-1.50;99.90;;;;;;5054219;28;20116;-68
2022/12/13 07:25:53;;;;;;;47.70;21.08;;;-1.50;99.90;;;;;;5050872;28;20186;-66
2022/12/13 07:28:19;;;;;;;47.78;20.83;;;-1.50;99.90;;;;;;5053114;28;20033;-66
2022/12/13 07:30:45;;;;;;;51.70;23.30;;;-1.50;99.90;;;;;;5040568;28;20640;-67
2022/12/13 07:33:11;;;;;;;50.00;22.38;;;-1.50;99.90;;;;;;5050629;28;20037;-67
2022/12/13 07:35:38;;;;;;;51.75;22.02;;;-1.50;99.90;;;;;;5035162;28;20574;-67
2022/12/13 07:38:05;;;;;;;55.17;23.73;;;-1.50;99.90;;;;;;5050934;28;20032;-67
2022/12/13 07:40:35;;;;;;;70.43;29.13;;;-1.50;99.90;;;;;;5052068;28;20091;-67
2022/12/13 07:43:00;;;;;;;57.45;26.70;;;-1.40;99.90;;;;;;5046478;28;20021;-67
2022/12/13 07:45:26;;;;;;;59.60;24.55;;;-1.40;99.90;;;;;;5034858;28;20036;-67
2022/12/13 07:47:52;;;;;;;54.13;21.80;;;-1.40;99.90;;;;;;5048173;28;20033;-66
2022/12/13 07:50:19;;;;;;;53.30;24.17;;;-1.50;99.90;;;;;;5038324;28;20064;-66
2022/12/13 07:52:49;;;;;;;57.90;23.80;;;-1.50;99.90;;;;;;5042767;28;20026;-66
2022/12/13 07:55:16;;;;;;;63.33;26.13;;;-1.50;99.90;;;;;;5032888;28;20029;-67
2022/12/13 07:57:42;;;;;;;166.48;36.72;;;-1.40;99.90;;;;;;5048427;28;20108;-66
2022/12/13 08:00:08;;;;;;;56.70;25.90;;;-1.40;99.90;;;;;;5033377;28;20108;-66
2022/12/13 08:02:34;;;;;;;55.17;23.42;;;-1.40;99.90;;;;;;5032472;28;20025;-66
2022/12/13 08:05:00;;;;;;;51.17;22.52;;;-1.40;99.90;;;;;;5053044;28;20489;-66
2022/12/13 08:07:25;;;;;;;45.83;22.55;;;-1.30;99.90;;;;;;5050854;28;20881;-66
2022/12/13 08:09:51;;;;;;;48.80;20.83;;;-1.30;99.90;;;;;;5053317;28;20044;-66
2022/12/13 08:12:16;;;;;;;50.72;21.55;;;-1.30;99.90;;;;;;5050144;28;20021;-67
2022/12/13 08:14:42;;;;;;;47.95;21.88;;;-1.30;99.90;;;;;;5033213;28;20025;-66
2022/12/13 08:17:07;;;;;;;177.32;35.85;;;-1.20;99.90;;;;;;5039940;28;20143;-66
2022/12/13 08:19:33;;;;;;;45.10;21.33;;;-1.20;99.90;;;;;;5040915;28;20074;-66
2022/12/13 08:21:58;;;;;;;50.58;21.35;;;-1.20;99.90;;;;;;5050187;28;20032;-66
2022/12/13 08:24:26;;;;;;;44.88;22.05;;;-1.20;99.90;;;;;;5052918;28;20075;-66
2022/12/13 08:26:51;;;;;;;249.20;42.95;;;-1.10;99.90;;;;;;5059538;28;20097;-66
2022/12/13 08:29:17;;;;;;;48.00;22.02;;;-1.10;99.90;;;;;;5071507;28;20317;-67
2022/12/13 08:31:43;;;;;;;49.78;22.35;;;-1.10;99.90;;;;;;5056921;28;20036;-67
2022/12/13 08:34:09;;;;;;;80.65;26.83;;;-1.00;99.90;;;;;;5035586;28;20033;-67
2022/12/13 08:36:34;;;;;;;68.05;22.95;;;-1.00;99.90;;;;;;5038837;28;20476;-67
2022/12/13 08:39:01;;;;;;;64.20;23.77;;;-0.90;99.90;;;;;;5044149;28;20112;-67
2022/12/13 08:41:28;;;;;;;51.30;23.27;;;-0.90;99.90;;;;;;5033419;28;20065;-67
2022/12/13 08:43:53;;;;;;;42.92;21.08;;;-0.80;99.90;;;;;;5039694;28;20380;-67
2022/12/13 08:46:19;;;;;;;50.95;21.92;;;-0.80;99.90;;;;;;5045836;28;20025;-67
2022/12/13 08:48:45;;;;;;;46.75;20.50;;;-0.80;99.90;;;;;;5051114;28;20028;-67
2022/12/13 08:51:16;;;;;;;44.65;20.92;;;-0.80;99.90;;;;;;5047252;28;20033;-67
2022/12/13 08:53:42;;;;;;;48.88;22.02;;;-0.70;99.90;;;;;;5051376;28;20037;-67
2022/12/13 08:56:11;;;;;;;47.70;21.58;;;-0.70;99.90;;;;;;5049533;28;20036;-67
2022/12/13 08:58:37;;;;;;;45.15;20.23;;;-0.70;99.90;;;;;;5052308;28;20047;-67
2022/12/13 09:01:07;;;;;;;40.95;19.38;;;-0.70;99.90;;;;;;5040580;28;20052;-67
2022/12/13 09:03:33;;;;;;;49.63;22.80;;;-0.60;99.90;;;;;;5052118;28;20076;-67
2022/12/13 09:06:10;;;;;;;43.80;19.60;;;-0.60;99.90;;;;;;5051613;28;20052;-67
2022/12/13 09:08:37;;;;;;;89.95;25.55;;;-0.60;99.90;;;;;;5051473;28;20119;-67
2022/12/13 09:11:04;;;;;;;45.40;23.27;;;-0.50;99.90;;;;;;5052071;28;20025;-67
2022/12/13 09:13:32;;;;;;;44.13;19.95;;;-0.50;99.90;;;;;;5048697;28;20116;-67
2022/12/13 09:15:58;;;;;;;44.33;21.00;;;-0.40;99.90;;;;;;5048722;28;20481;-67
2022/12/13 09:18:24;;;;;;;46.83;21.73;;;-0.40;99.90;;;;;;5041761;28;20053;-66
2022/12/13 09:20:50;;;;;;;42.20;19.70;;;-0.40;99.90;;;;;;5047864;28;20036;-66
2022/12/13 09:23:16;;;;;;;43.70;20.58;;;-0.30;99.90;;;;;;5049729;28;20055;-66
2022/12/13 09:25:42;;;;;;;43.83;20.45;;;-0.30;99.90;;;;;;5048218;28;20045;-67
2022/12/13 09:28:08;;;;;;;43.65;21.27;;;-0.30;99.90;;;;;;5047394;28;20389;-66
2022/12/13 09:30:38;;;;;;;40.85;20.08;;;-0.20;99.90;;;;;;5039660;28;20381;-67
2022/12/13 09:33:03;;;;;;;40.53;19.30;;;-0.20;99.90;;;;;;5049881;28;20041;-66
2022/12/13 09:35:29;;;;;;;41.30;19.33;;;-0.10;99.90;;;;;;5049921;28;20496;-67
2022/12/13 09:37:55;;;;;;;44.78;20.35;;;0.00;99.90;;;;;;5052296;28;20435;-67
2022/12/13 09:40:24;;;;;;;44.08;22.52;;;0.00;99.90;;;;;;5049806;28;20063;-66
2022/12/13 09:42:54;;;;;;;47.17;21.60;;;0.10;99.90;;;;;;5045464;28;20411;-68
2022/12/13 09:45:20;;;;;;;41.88;20.10;;;0.20;99.90;;;;;;5050522;28;20017;-67
2022/12/13 09:47:48;;;;;;;41.53;18.88;;;0.30;99.90;;;;;;5051444;28;20028;-68
2022/12/13 09:50:13;;;;;;;41.92;20.30;;;0.40;99.90;;;;;;5049735;28;20041;-68
2022/12/13 09:52:41;;;;;;;38.10;18.88;;;0.50;99.90;;;;;;5031491;28;20029;-68
2022/12/13 09:55:28;;;;;;;39.95;19.10;;;0.60;99.90;;;;;;5058548;28;20032;-68
2022/12/13 09:57:54;;;;;;;38.30;17.95;;;0.80;99.90;;;;;;5033371;28;20050;-68
2022/12/13 10:00:22;;;;;;;42.10;17.15;;;1.10;99.90;;;;;;5061148;28;20427;-67
2022/12/13 10:02:56;;;;;;;39.47;16.98;;;1.40;99.90;;;;;;5049883;28;20029;-67
2022/12/13 10:05:30;;;;;;;38.22;16.92;;;1.60;99.90;;;;;;5047621;28;20060;-67
2022/12/13 10:08:23;;;;;;;37.03;17.70;;;1.80;99.90;;;;;;5061189;28;20036;-67
2022/12/13 10:10:51;;;;;;;35.80;17.17;;;1.80;99.90;;;;;;5031332;28;20048;-67
2022/12/13 10:13:22;;;;;;;34.83;17.15;;;1.80;99.90;;;;;;5045968;28;20441;-67
2022/12/13 10:15:58;;;;;;;35.95;17.65;;;1.80;99.90;;;;;;5055959;28;20028;-66
2022/12/13 10:18:32;;;;;;;34.17;16.65;;;1.80;99.90;;;;;;5051572;28;20048;-67
2022/12/13 10:21:02;;;;;;;36.67;17.38;;;1.90;99.90;;;;;;5062292;28;20033;-67
2022/12/13 10:23:27;;;;;;;34.50;16.13;;;1.90;99.90;;;;;;5059236;28;20454;-67
2022/12/13 10:25:54;;;;;;;37.35;17.52;;;1.90;99.90;;;;;;5058987;28;20183;-67
2022/12/13 10:28:30;;;;;;;36.72;16.70;;;2.10;99.90;;;;;;5046335;28;20037;-67
2022/12/13 10:30:56;;;;;;;31.35;16.55;;;2.60;99.90;;;;;;5060765;28;20033;-66
2022/12/13 10:33:24;;;;;;;31.17;14.70;;;3.20;99.90;;;;;;5054734;28;20154;-67
2022/12/13 10:36:10;;;;;;;36.78;15.85;;;3.70;99.90;;;;;;5059993;28;20162;-67
2022/12/13 10:38:47;;;;;;;33.70;15.13;;;4.20;99.90;;;;;;5052085;28;20489;-68
2022/12/13 10:41:30;;;;;;;34.33;15.10;;;4.60;99.90;;;;;;5034863;28;20145;-69
2022/12/13 10:44:11;;;;;;;33.25;14.73;;;4.80;99.90;;;;;;5047687;28;20061;-67
2022/12/13 10:46:39;;;;;;;29.08;14.38;;;5.00;99.90;;;;;;5054425;28;20086;-67
2022/12/13 10:49:18;;;;;;;32.83;14.27;;;5.20;99.90;;;;;;5055045;28;20061;-68
2022/12/13 10:51:44;;;;;;;26.63;13.90;;;5.20;99.90;;;;;;5062807;28;20033;-67
2022/12/13 10:54:25;;;;;;;30.63;13.65;;;5.10;99.90;;;;;;5054220;28;20087;-68
2022/12/13 10:56:54;;;;;;;30.05;13.40;;;4.90;99.90;;;;;;5038547;28;20036;-68
2022/12/13 10:59:23;;;;;;;31.63;15.05;;;4.80;99.90;;;;;;5056395;28;20042;-67
2022/12/13 11:01:49;;;;;;;29.98;14.98;;;4.70;99.90;;;;;;5049652;28;20029;-68
2022/12/13 11:04:30;;;;;;;33.00;17.00;;;4.50;99.90;;;;;;5055295;28;20049;-67
2022/12/13 11:06:58;;;;;;;29.63;14.88;;;4.40;99.90;;;;;;5058856;28;20033;-67
2022/12/13 11:09:31;;;;;;;31.33;15.27;;;4.30;99.90;;;;;;5064486;28;20040;-67
2022/12/13 11:12:02;;;;;;;28.42;13.98;;;4.30;99.90;;;;;;5032304;28;20460;-68
2022/12/13 11:14:34;;;;;;;32.37;16.30;;;4.20;99.90;;;;;;5041588;28;20029;-67
2022/12/13 11:17:07;;;;;;;31.48;14.00;;;4.20;99.90;;;;;;5049215;28;20286;-67
2022/12/13 11:19:33;;;;;;;32.13;15.27;;;4.30;99.90;;;;;;5054020;28;20131;-67
2022/12/13 11:22:00;;;;;;;36.03;15.75;;;4.20;99.90;;;;;;5052008;28;20029;-67
2022/12/13 11:24:33;;;;;;;34.90;16.73;;;4.10;99.90;;;;;;5045347;28;20025;-67
2022/12/13 11:27:37;;;;;;;30.52;15.25;;;4.00;99.90;;;;;;5045299;28;20057;-67
2022/12/13 11:30:21;;;;;;;38.38;20.17;;;3.90;99.90;;;;;;5037283;28;20026;-67
2022/12/13 11:32:55;;;;;;;33.58;17.50;;;3.90;99.90;;;;;;5043555;28;20022;-67
2022/12/13 11:35:30;;;;;;;33.63;16.38;;;3.90;99.90;;;;;;5049425;28;20707;-66
2022/12/13 11:38:26;;;;;;;34.80;17.88;;;3.90;99.90;;;;;;5048348;28;20065;-67
2022/12/13 11:41:09;;;;;;;32.92;16.25;;;3.80;99.90;;;;;;5053333;28;20465;-68
2022/12/13 11:43:47;;;;;;;35.50;17.15;;;3.80;99.90;;;;;;5046466;28;20454;-66
2022/12/13 11:46:21;;;;;;;35.00;17.17;;;3.80;99.90;;;;;;5040538;28;20041;-67
2022/12/13 11:48:56;;;;;;;30.63;15.77;;;3.90;99.90;;;;;;5048441;28;20111;-67
2022/12/13 11:51:30;;;;;;;34.60;17.05;;;4.00;99.90;;;;;;5039807;28;20037;-67
2022/12/13 11:54:03;;;;;;;33.22;16.42;;;4.10;99.90;;;;;;5049080;28;20510;-67
2022/12/13 11:56:40;;;;;;;33.28;16.30;;;4.10;99.90;;;;;;5047705;28;20044;-67
2022/12/13 11:59:17;;;;;;;34.65;19.25;;;4.30;99.90;;;;;;5061776;28;20051;-67
2022/12/13 12:01:58;;;;;;;38.95;19.45;;;4.20;99.90;;;;;;5039081;28;20068;-67
2022/12/13 12:04:38;;;;;;;34.45;17.15;;;4.20;99.90;;;;;;5048444;28;20074;-67
2022/12/13 12:07:20;;;;;;;32.28;17.48;;;4.30;99.90;;;;;;5051711;28;20097;-68
2022/12/13 12:10:00;;;;;;;35.10;18.02;;;4.50;99.90;;;;;;5048231;28;20033;-68
2022/12/13 12:12:33;;;;;;;32.28;17.67;;;4.90;99.90;;;;;;5032409;28;20457;-68
2022/12/13 12:15:04;;;;;;;38.40;16.95;;;5.20;99.90;;;;;;5047958;28;20025;-68
2022/12/13 12:17:30;;;;;;;33.30;16.58;;;5.40;99.90;;;;;;5050355;28;20051;-68
2022/12/13 12:19:57;;;;;;;38.03;16.92;;;5.50;99.90;;;;;;5050009;28;20435;-69
2022/12/13 12:22:32;;;;;;;32.67;16.73;;;5.60;99.90;;;;;;5049297;28;20041;-68
2022/12/13 12:25:32;;;;;;;34.97;18.02;;;5.80;99.90;;;;;;5052241;28;20029;-72
2022/12/13 12:28:13;;;;;;;34.45;16.40;;;5.80;99.90;;;;;;5035405;28;20110;-71
2022/12/13 12:30:54;;;;;;;32.38;16.98;;;5.90;99.90;;;;;;5049578;28;20091;-70
2022/12/13 12:33:48;;;;;;;35.13;18.40;;;6.00;99.90;;;;;;5038264;28;20020;-70
2022/12/13 12:36:40;;;;;;;31.27;16.30;;;6.10;99.90;;;;;;5051938;28;20370;-70
2022/12/13 12:39:32;;;;;;;31.10;17.00;;;5.90;99.90;;;;;;5035856;28;20049;-70
2022/12/13 12:42:33;;;;;;;34.60;17.42;;;5.70;99.90;;;;;;5050481;28;20025;-69
2022/12/13 12:45:36;;;;;;;31.75;17.00;;;5.50;99.90;;;;;;5060905;28;20028;-71
2022/12/13 12:48:30;;;;;;;34.25;17.25;;;5.20;99.90;;;;;;5051893;28;20032;-71